Time;durP1;ratioP1;P1;durP2;ratioP2;P2;SDS_P1;SDS_P2;PMS_P1;PMS_P2;Temp;Humidity;BMP_temperature;BMP_pressure;BME280_temperature;BME280_humidity;BME280_pressure;Samples;Min_cycle;Max_cycle;Signal;HPM_P1;HPM_P2
2023/06/23 00:01:23;;;;;;;4.57;1.83;;;22.70;55.30;;;;;;5064171;28;20469;-70
2023/06/23 00:03:54;;;;;;;3.27;1.80;;;22.70;55.50;;;;;;5063010;28;20530;-71
2023/06/23 00:06:22;;;;;;;2.73;1.33;;;22.80;55.50;;;;;;5076412;28;20463;-69
2023/06/23 00:08:49;;;;;;;2.93;1.30;;;22.70;55.40;;;;;;5076632;28;20829;-69
2023/06/23 00:11:19;;;;;;;3.87;1.80;;;22.70;55.20;;;;;;5072522;28;20438;-69
2023/06/23 00:13:46;;;;;;;3.80;2.00;;;22.70;55.20;;;;;;5056149;28;20473;-69
2023/06/23 00:16:13;;;;;;;3.50;1.83;;;22.70;55.20;;;;;;5056434;28;20438;-70
2023/06/23 00:18:40;;;;;;;3.50;2.20;;;22.60;55.30;;;;;;5056505;28;20495;-69
2023/06/23 00:21:11;;;;;;;4.07;1.40;;;22.60;55.40;;;;;;5056503;28;20469;-69
2023/06/23 00:23:39;;;;;;;3.70;1.73;;;22.60;55.20;;;;;;5076513;28;20408;-69
2023/06/23 00:26:07;;;;;;;3.47;1.77;;;22.60;55.50;;;;;;5075887;28;20909;-69
2023/06/23 00:28:35;;;;;;;3.60;1.57;;;22.60;55.40;;;;;;5076177;28;20425;-71
2023/06/23 00:31:02;;;;;;;4.00;1.63;;;22.60;55.60;;;;;;5073104;28;20441;-69
2023/06/23 00:33:29;;;;;;;3.23;1.63;;;22.60;55.50;;;;;;5075728;28;20432;-69
2023/06/23 00:35:56;;;;;;;3.20;1.80;;;22.50;55.70;;;;;;5075865;28;20433;-69
2023/06/23 00:38:25;;;;;;;4.07;1.50;;;22.50;55.90;;;;;;5076024;28;20436;-69
2023/06/23 00:40:54;;;;;;;2.63;1.30;;;22.50;55.80;;;;;;5075722;28;20475;-69
2023/06/23 00:43:21;;;;;;;9.43;2.30;;;22.40;55.70;;;;;;5075697;28;20519;-69
2023/06/23 00:45:50;;;;;;;5.27;1.77;;;22.40;56.00;;;;;;5074914;28;20486;-69
2023/06/23 00:48:17;;;;;;;5.20;1.90;;;22.40;56.10;;;;;;5076058;28;20778;-70
2023/06/23 00:50:45;;;;;;;3.30;1.33;;;22.30;56.20;;;;;;5075942;28;20484;-69
2023/06/23 00:53:13;;;;;;;2.43;0.83;;;22.30;56.20;;;;;;5072799;28;20957;-69
2023/06/23 00:55:40;;;;;;;3.67;1.53;;;22.40;56.80;;;;;;5075402;28;20448;-70
2023/06/23 00:58:09;;;;;;;3.73;1.63;;;22.40;56.10;;;;;;5075757;28;20921;-69
2023/06/23 01:00:36;;;;;;;2.53;1.07;;;22.30;56.10;;;;;;5075522;28;20436;-69
2023/06/23 01:03:03;;;;;;;3.13;1.67;;;22.30;56.10;;;;;;5074960;28;20471;-69
2023/06/23 01:05:35;;;;;;;3.10;1.53;;;22.30;56.20;;;;;;5075617;28;20430;-69
2023/06/23 01:08:14;;;;;;;3.23;1.70;;;22.30;56.00;;;;;;5075644;28;20779;-69
2023/06/23 01:10:45;;;;;;;2.43;1.27;;;22.20;56.20;;;;;;5075499;28;20419;-69
2023/06/23 01:13:28;;;;;;;3.70;1.23;;;22.20;56.50;;;;;;5075041;28;20471;-70
2023/06/23 01:15:59;;;;;;;3.10;1.60;;;22.20;56.70;;;;;;5074899;28;20966;-70
2023/06/23 01:18:38;;;;;;;2.97;1.20;;;22.20;56.90;;;;;;5075228;28;20420;-69
2023/06/23 01:21:10;;;;;;;2.70;1.50;;;22.20;56.80;;;;;;5075004;28;20915;-69
2023/06/23 01:23:53;;;;;;;3.30;1.80;;;22.20;56.90;;;;;;5075030;28;20419;-69
2023/06/23 01:26:47;;;;;;;2.50;1.43;;;22.20;56.80;;;;;;5060723;28;20440;-69
2023/06/23 01:29:21;;;;;;;2.60;1.03;;;22.20;56.80;;;;;;5054883;28;20753;-69
2023/06/23 01:31:55;;;;;;;3.10;1.30;;;22.20;57.00;;;;;;5055151;28;20819;-69
2023/06/23 01:34:26;;;;;;;3.53;1.30;;;22.20;57.10;;;;;;5055306;28;20454;-69
2023/06/23 01:36:59;;;;;;;3.70;1.00;;;22.20;57.30;;;;;;5055043;28;20474;-69
2023/06/23 01:39:30;;;;;;;4.30;1.50;;;22.20;57.10;;;;;;5055066;28;20422;-69
2023/06/23 01:42:01;;;;;;;2.80;1.43;;;22.20;57.10;;;;;;5054645;28;20977;-69
2023/06/23 01:44:30;;;;;;;4.30;1.27;;;22.20;57.40;;;;;;5054840;28;20458;-69
2023/06/23 01:47:02;;;;;;;2.77;1.40;;;22.10;57.60;;;;;;5054786;28;20448;-69
2023/06/23 01:49:36;;;;;;;3.47;1.80;;;22.10;57.80;;;;;;5054652;28;20972;-69
2023/06/23 01:52:06;;;;;;;3.20;1.30;;;22.10;58.10;;;;;;5054747;28;20423;-69
2023/06/23 01:54:37;;;;;;;2.60;1.10;;;22.10;58.10;;;;;;5072874;28;20433;-69
2023/06/23 01:57:06;;;;;;;3.67;1.20;;;22.10;58.30;;;;;;5074307;28;20422;-69
2023/06/23 01:59:37;;;;;;;3.03;1.77;;;22.10;58.40;;;;;;5074498;28;20424;-70
2023/06/23 02:02:05;;;;;;;3.30;1.20;;;22.10;58.40;;;;;;5074532;28;20507;-69
2023/06/23 02:04:33;;;;;;;2.43;1.10;;;22.10;58.50;;;;;;5074168;28;20478;-69
2023/06/23 02:07:01;;;;;;;4.20;1.30;;;22.10;58.70;;;;;;5074443;28;20471;-70
2023/06/23 02:09:30;;;;;;;2.80;1.00;;;22.10;58.70;;;;;;5074082;28;20429;-69
2023/06/23 02:11:59;;;;;;;3.00;1.30;;;22.10;58.50;;;;;;5074408;28;20429;-69
2023/06/23 02:14:28;;;;;;;2.50;1.10;;;22.00;58.90;;;;;;5073444;28;20461;-70
2023/06/23 02:16:58;;;;;;;3.13;0.93;;;22.00;59.10;;;;;;5074260;28;20516;-70
2023/06/23 02:19:28;;;;;;;3.23;1.20;;;22.00;59.40;;;;;;5074264;28;20429;-70
2023/06/23 02:21:57;;;;;;;2.17;0.93;;;21.80;59.50;;;;;;5074140;28;20542;-69
2023/06/23 02:24:26;;;;;;;3.07;1.43;;;21.80;59.70;;;;;;5069812;28;20510;-69
2023/06/23 02:26:55;;;;;;;2.67;1.23;;;21.80;59.80;;;;;;5054172;28;20469;-70
2023/06/23 02:29:23;;;;;;;3.90;1.63;;;21.70;59.90;;;;;;5054100;28;20519;-69
2023/06/23 02:31:51;;;;;;;2.33;1.00;;;21.70;60.20;;;;;;5053493;28;20472;-69
2023/06/23 02:34:19;;;;;;;3.80;1.20;;;21.70;60.50;;;;;;5054954;28;20499;-74
2023/06/23 02:36:49;;;;;;;2.60;1.20;;;21.70;60.00;;;;;;5033355;28;20457;-70
2023/06/23 02:39:19;;;;;;;2.93;1.40;;;21.70;60.20;;;;;;5033703;28;20471;-69
2023/06/23 02:41:51;;;;;;;2.73;0.90;;;21.70;60.50;;;;;;5033353;28;20479;-69
2023/06/23 02:44:24;;;;;;;2.27;1.30;;;21.70;60.60;;;;;;5034225;28;20459;-70
2023/06/23 02:46:57;;;;;;;2.10;1.00;;;21.80;61.10;;;;;;5053583;28;20418;-69
2023/06/23 02:49:30;;;;;;;3.33;1.00;;;21.70;61.40;;;;;;5053457;28;20513;-70
2023/06/23 02:52:00;;;;;;;2.57;1.40;;;21.60;61.60;;;;;;5053729;28;20422;-69
2023/06/23 02:54:31;;;;;;;2.30;1.10;;;21.60;62.40;;;;;;5053035;28;20934;-69
2023/06/23 02:57:00;;;;;;;3.07;1.40;;;21.60;63.90;;;;;;5053776;28;20423;-69
2023/06/23 02:59:28;;;;;;;2.83;1.37;;;21.60;63.90;;;;;;5053689;28;20821;-69
2023/06/23 03:01:59;;;;;;;3.80;1.13;;;21.60;63.30;;;;;;5053573;28;20517;-70
2023/06/23 03:04:30;;;;;;;2.93;1.10;;;21.60;63.60;;;;;;5053038;28;20457;-73
2023/06/23 03:07:05;;;;;;;2.47;0.93;;;21.60;63.10;;;;;;5063198;28;20899;-69
2023/06/23 03:09:33;;;;;;;2.10;1.10;;;21.60;64.30;;;;;;5073499;28;20541;-69
2023/06/23 03:12:00;;;;;;;2.10;0.80;;;21.60;66.20;;;;;;5073540;28;20446;-69
2023/06/23 03:14:29;;;;;;;2.23;1.00;;;21.50;65.80;;;;;;5073496;28;20453;-69
2023/06/23 03:17:01;;;;;;;2.83;1.27;;;21.50;67.50;;;;;;5073210;28;20444;-69
2023/06/23 03:19:37;;;;;;;2.37;1.23;;;21.50;69.40;;;;;;5073598;28;20447;-69
2023/06/23 03:22:09;;;;;;;2.63;1.40;;;21.50;69.40;;;;;;5073185;28;20547;-70
2023/06/23 03:24:39;;;;;;;2.33;1.07;;;21.50;68.10;;;;;;5057087;28;20470;-69
2023/06/23 03:27:09;;;;;;;3.30;1.20;;;21.50;69.80;;;;;;5053520;28;20426;-69
2023/06/23 03:29:41;;;;;;;2.67;1.30;;;21.50;69.90;;;;;;5053467;28;20799;-69
2023/06/23 03:32:11;;;;;;;4.50;1.37;;;21.50;67.70;;;;;;5055018;28;20480;-69
2023/06/23 03:34:44;;;;;;;3.20;1.40;;;21.40;67.50;;;;;;5072457;28;20903;-69
2023/06/23 03:37:16;;;;;;;3.63;1.33;;;21.30;68.10;;;;;;5070939;28;20785;-69
2023/06/23 03:39:50;;;;;;;2.00;0.97;;;21.20;68.60;;;;;;5073312;28;20444;-69
2023/06/23 03:42:22;;;;;;;3.37;1.30;;;21.10;69.00;;;;;;5072696;28;21015;-69
2023/06/23 03:44:51;;;;;;;3.10;1.60;;;21.10;69.40;;;;;;5073300;28;20420;-69
2023/06/23 03:47:22;;;;;;;2.40;1.20;;;21.10;69.60;;;;;;5072793;28;20910;-69
2023/06/23 03:49:53;;;;;;;2.87;1.00;;;21.10;69.50;;;;;;5072854;28;20511;-70
2023/06/23 03:52:23;;;;;;;2.53;1.13;;;21.00;68.60;;;;;;5072894;28;20426;-70
2023/06/23 03:54:53;;;;;;;3.40;1.37;;;21.00;69.10;;;;;;5073165;28;20432;-73
2023/06/23 03:57:25;;;;;;;2.87;1.30;;;21.00;69.00;;;;;;5072555;28;20427;-69
2023/06/23 03:59:53;;;;;;;2.67;1.20;;;21.00;69.50;;;;;;5072123;28;20463;-72
2023/06/23 04:02:22;;;;;;;2.20;0.97;;;21.10;69.10;;;;;;5061810;28;20966;-69
2023/06/23 04:04:56;;;;;;;1.93;0.87;;;21.00;67.60;;;;;;5052996;28;20487;-69
2023/06/23 04:07:26;;;;;;;2.33;1.03;;;21.00;68.70;;;;;;5052680;28;20425;-70
2023/06/23 04:10:09;;;;;;;2.30;1.00;;;21.00;69.50;;;;;;5052401;28;20437;-69
2023/06/23 04:12:37;;;;;;;2.83;1.33;;;21.00;68.80;;;;;;5052565;28;20430;-70
2023/06/23 04:15:08;;;;;;;2.00;0.80;;;21.00;69.40;;;;;;5052555;28;20942;-69
2023/06/23 04:17:38;;;;;;;2.10;0.90;;;21.00;68.80;;;;;;5052857;28;20471;-69
2023/06/23 04:20:10;;;;;;;2.20;0.77;;;21.00;68.40;;;;;;5054866;28;20472;-69
2023/06/23 04:22:39;;;;;;;2.00;0.87;;;21.00;68.40;;;;;;5056113;28;20898;-69
2023/06/23 04:25:09;;;;;;;2.17;1.00;;;21.00;68.60;;;;;;5056061;28;20437;-71
2023/06/23 04:27:38;;;;;;;1.97;0.80;;;21.00;68.60;;;;;;5056113;28;20422;-71
2023/06/23 04:30:07;;;;;;;1.80;0.90;;;21.10;68.60;;;;;;5056290;28;20430;-72
2023/06/23 04:32:37;;;;;;;3.20;0.90;;;21.10;68.20;;;;;;5055889;28;20495;-69
2023/06/23 04:35:11;;;;;;;1.83;0.60;;;21.10;68.40;;;;;;5056351;28;20486;-70
2023/06/23 04:37:43;;;;;;;1.73;0.60;;;21.10;67.90;;;;;;5058621;28;20419;-69
2023/06/23 04:40:18;;;;;;;2.13;0.80;;;21.10;68.10;;;;;;5052857;28;20430;-69
2023/06/23 04:42:49;;;;;;;1.90;0.70;;;21.10;67.70;;;;;;5054702;28;20472;-69
2023/06/23 04:45:25;;;;;;;2.10;0.80;;;21.10;67.50;;;;;;5055118;28;20972;-69
2023/06/23 04:48:03;;;;;;;1.70;0.70;;;21.10;67.70;;;;;;5055043;28;20422;-69
2023/06/23 04:50:39;;;;;;;2.13;0.80;;;21.10;67.90;;;;;;5055480;28;20794;-69
2023/06/23 04:53:09;;;;;;;2.03;0.60;;;21.20;68.20;;;;;;5054440;28;20471;-70
2023/06/23 04:55:39;;;;;;;2.47;0.90;;;21.20;67.90;;;;;;5035154;28;20431;-69
2023/06/23 04:58:10;;;;;;;2.47;0.70;;;21.10;68.30;;;;;;5035035;28;20431;-69
2023/06/23 05:00:44;;;;;;;2.63;0.80;;;21.10;68.20;;;;;;5034885;28;20451;-69
2023/06/23 05:03:12;;;;;;;2.57;1.03;;;21.10;68.60;;;;;;5048847;28;20540;-69
2023/06/23 05:05:43;;;;;;;2.37;0.53;;;21.10;69.00;;;;;;5051922;28;20452;-69
2023/06/23 05:08:11;;;;;;;2.00;0.70;;;21.20;69.40;;;;;;5064306;28;20458;-69
2023/06/23 05:10:46;;;;;;;1.90;0.73;;;21.10;69.50;;;;;;5071483;28;20440;-69
2023/06/23 05:13:20;;;;;;;6.20;0.90;;;21.20;69.80;;;;;;5061412;28;20456;-70
2023/06/23 05:15:55;;;;;;;2.20;0.80;;;21.10;70.30;;;;;;5055198;28;20892;-69
2023/06/23 05:18:26;;;;;;;2.13;0.80;;;21.10;70.80;;;;;;5046744;28;20911;-69
2023/06/23 05:20:59;;;;;;;1.80;0.80;;;21.20;72.10;;;;;;5051029;28;20455;-72
2023/06/23 05:23:28;;;;;;;2.23;0.80;;;21.20;73.30;;;;;;5054068;28;20473;-69
2023/06/23 05:25:57;;;;;;;2.47;1.13;;;21.20;74.90;;;;;;5059694;28;20473;-69
2023/06/23 05:28:26;;;;;;;2.47;0.90;;;21.20;75.90;;;;;;5053448;28;20441;-71
2023/06/23 05:30:56;;;;;;;2.83;0.80;;;21.10;76.60;;;;;;5050343;28;20759;-69
2023/06/23 05:33:24;;;;;;;5.20;1.20;;;21.00;78.10;;;;;;5045324;28;20856;-69
2023/06/23 05:35:55;;;;;;;3.07;0.80;;;21.00;78.80;;;;;;5050476;28;20814;-69
2023/06/23 05:38:24;;;;;;;2.90;0.77;;;21.00;78.90;;;;;;5034250;28;20422;-69
2023/06/23 05:40:51;;;;;;;2.40;0.70;;;21.00;79.40;;;;;;5047697;28;20871;-69
2023/06/23 05:43:18;;;;;;;1.87;0.70;;;21.00;79.60;;;;;;5053714;28;20478;-71
2023/06/23 05:45:46;;;;;;;2.53;0.87;;;21.00;79.20;;;;;;5054299;28;20771;-70
2023/06/23 05:48:20;;;;;;;3.20;0.80;;;21.00;78.30;;;;;;5054501;28;20559;-69
2023/06/23 05:50:48;;;;;;;2.80;0.80;;;21.00;78.80;;;;;;5053589;28;20425;-70
2023/06/23 05:53:21;;;;;;;2.20;0.80;;;21.00;79.40;;;;;;5053979;28;20938;-69
2023/06/23 05:55:55;;;;;;;1.90;0.80;;;21.00;79.70;;;;;;5052898;28;20916;-74
2023/06/23 05:58:27;;;;;;;2.73;1.00;;;20.90;79.30;;;;;;5050399;28;20923;-71
2023/06/23 06:00:56;;;;;;;2.13;0.70;;;21.00;78.80;;;;;;5058606;28;20424;-69
2023/06/23 06:03:29;;;;;;;2.50;1.00;;;20.90;78.80;;;;;;5074008;28;20492;-69
2023/06/23 06:05:58;;;;;;;2.03;0.90;;;20.90;78.30;;;;;;5073878;28;20417;-70
2023/06/23 06:08:27;;;;;;;3.57;0.87;;;20.90;77.90;;;;;;5072829;28;20970;-70
2023/06/23 06:10:56;;;;;;;2.10;0.90;;;20.90;78.30;;;;;;5072580;28;20470;-69
2023/06/23 06:13:25;;;;;;;2.20;1.00;;;20.90;78.70;;;;;;5055441;28;20914;-70
2023/06/23 06:15:54;;;;;;;2.20;0.80;;;20.90;79.00;;;;;;5072749;28;20470;-69
2023/06/23 06:18:23;;;;;;;2.10;1.00;;;20.90;79.10;;;;;;5063784;28;20472;-69
2023/06/23 06:20:51;;;;;;;2.40;1.20;;;20.90;79.40;;;;;;5053072;28;20904;-70
2023/06/23 06:23:21;;;;;;;2.10;0.97;;;20.90;78.10;;;;;;5054646;28;20500;-69
2023/06/23 06:25:53;;;;;;;2.33;1.10;;;20.90;78.80;;;;;;5053562;28;20440;-70
2023/06/23 06:28:22;;;;;;;2.00;1.00;;;20.80;78.90;;;;;;5033396;28;20466;-70
2023/06/23 06:30:50;;;;;;;3.20;1.70;;;20.80;79.20;;;;;;5053018;28;20521;-69
2023/06/23 06:33:19;;;;;;;3.40;2.00;;;20.80;78.70;;;;;;5053698;28;20506;-70
2023/06/23 06:35:47;;;;;;;8.20;2.07;;;20.80;79.10;;;;;;5064534;28;20444;-69
2023/06/23 06:38:16;;;;;;;4.30;2.90;;;20.80;80.30;;;;;;5053507;28;20433;-69
2023/06/23 06:40:46;;;;;;;4.40;3.03;;;20.80;80.50;;;;;;5054030;28;20579;-69
2023/06/23 06:43:15;;;;;;;4.80;3.67;;;20.70;80.40;;;;;;5052784;28;20478;-70
2023/06/23 06:45:42;;;;;;;5.37;3.23;;;20.70;81.40;;;;;;5054730;28;20445;-70
2023/06/23 06:48:10;;;;;;;4.07;3.27;;;20.60;81.70;;;;;;5073617;28;20428;-69
2023/06/23 06:50:38;;;;;;;4.57;3.03;;;20.60;81.90;;;;;;5065763;28;20441;-69
2023/06/23 06:53:05;;;;;;;4.67;3.27;;;20.50;81.60;;;;;;5053615;28;20475;-69
2023/06/23 06:55:33;;;;;;;5.07;3.73;;;20.50;81.60;;;;;;5053951;28;20487;-69
2023/06/23 06:58:00;;;;;;;5.30;3.77;;;20.50;82.40;;;;;;5053464;28;20433;-69
2023/06/23 07:00:28;;;;;;;4.70;2.93;;;20.50;82.80;;;;;;5053701;28;20432;-70
2023/06/23 07:02:56;;;;;;;4.63;3.10;;;20.50;83.50;;;;;;5053391;28;20443;-69
2023/06/23 07:05:23;;;;;;;6.57;3.80;;;20.50;83.30;;;;;;5053417;28;20904;-69
2023/06/23 07:07:50;;;;;;;5.57;3.90;;;20.50;82.20;;;;;;5053886;28;20426;-69
2023/06/23 07:10:18;;;;;;;5.37;3.57;;;20.40;83.10;;;;;;5053669;28;20472;-69
2023/06/23 07:12:45;;;;;;;5.30;3.50;;;20.50;83.60;;;;;;5053293;28;20437;-69
2023/06/23 07:15:12;;;;;;;15.13;5.30;;;20.50;82.60;;;;;;5053169;28;20475;-72
2023/06/23 07:17:40;;;;;;;5.07;4.17;;;20.50;82.60;;;;;;5053299;28;20974;-69
2023/06/23 07:20:08;;;;;;;5.37;3.80;;;20.40;82.10;;;;;;5053538;28;20478;-69
2023/06/23 07:22:35;;;;;;;5.87;4.20;;;20.40;82.20;;;;;;5053225;28;20487;-69
2023/06/23 07:25:02;;;;;;;5.50;4.80;;;20.40;82.00;;;;;;5053118;28;20477;-70
2023/06/23 07:27:29;;;;;;;5.03;4.10;;;20.50;82.90;;;;;;5053614;28;20433;-69
2023/06/23 07:29:58;;;;;;;6.50;4.90;;;20.50;83.20;;;;;;5053173;28;20430;-70
2023/06/23 07:32:25;;;;;;;7.27;5.77;;;20.50;82.70;;;;;;5053421;28;20474;-69
2023/06/23 07:34:53;;;;;;;6.53;5.20;;;20.60;82.80;;;;;;5053416;28;20437;-70
2023/06/23 07:37:20;;;;;;;7.37;5.23;;;20.60;81.20;;;;;;5053170;28;20422;-69
2023/06/23 07:39:47;;;;;;;9.70;5.20;;;20.60;81.00;;;;;;5053111;28;20462;-69
2023/06/23 07:42:14;;;;;;;7.93;6.00;;;20.70;81.90;;;;;;5053005;28;20461;-70
2023/06/23 07:44:41;;;;;;;10.37;6.30;;;20.70;81.20;;;;;;5053199;28;20491;-69
2023/06/23 07:47:09;;;;;;;8.97;6.50;;;20.70;80.00;;;;;;5053150;28;20428;-69
2023/06/23 07:49:35;;;;;;;8.40;7.23;;;20.70;79.30;;;;;;5052819;28;20938;-70
2023/06/23 07:52:04;;;;;;;8.97;7.20;;;20.70;78.50;;;;;;5053124;28;20788;-70
2023/06/23 07:54:31;;;;;;;9.70;7.37;;;20.70;77.50;;;;;;5055226;28;20437;-69
2023/06/23 07:56:58;;;;;;;10.37;6.70;;;20.60;78.10;;;;;;5057005;28;20422;-69
2023/06/23 07:59:26;;;;;;;9.07;6.60;;;20.60;78.40;;;;;;5057040;28;20460;-69
2023/06/23 08:01:53;;;;;;;7.37;6.27;;;20.60;79.00;;;;;;5056862;28;20428;-69
2023/06/23 08:04:20;;;;;;;8.07;5.40;;;20.70;79.30;;;;;;5056819;28;20477;-69
2023/06/23 08:06:47;;;;;;;8.23;6.30;;;20.70;80.30;;;;;;5056830;28;20456;-69
2023/06/23 08:09:16;;;;;;;8.10;6.43;;;20.70;79.20;;;;;;5056759;28;20459;-70
2023/06/23 08:11:43;;;;;;;9.40;6.20;;;20.70;78.60;;;;;;5056438;28;20473;-71
2023/06/23 08:14:10;;;;;;;8.10;6.03;;;20.60;78.60;;;;;;5056739;28;20829;-69
2023/06/23 08:16:37;;;;;;;7.60;6.10;;;20.60;78.50;;;;;;5056539;28;20445;-69
2023/06/23 08:19:04;;;;;;;10.40;7.30;;;20.60;80.00;;;;;;5056269;28;20487;-69
2023/06/23 08:21:31;;;;;;;8.50;6.70;;;20.60;77.70;;;;;;5056598;28;20465;-69
2023/06/23 08:23:58;;;;;;;8.90;6.43;;;20.70;79.40;;;;;;5056367;28;20981;-69
2023/06/23 08:26:27;;;;;;;8.30;6.87;;;20.70;78.90;;;;;;5056146;28;20520;-69
2023/06/23 08:28:53;;;;;;;18.87;6.27;;;20.80;78.90;;;;;;5056706;28;20612;-69
2023/06/23 08:31:20;;;;;;;8.33;6.60;;;21.00;80.60;;;;;;5056247;28;20433;-69
2023/06/23 08:33:47;;;;;;;7.17;5.80;;;21.20;80.10;;;;;;5056341;28;20459;-69
2023/06/23 08:36:14;;;;;;;7.90;5.90;;;21.30;77.20;;;;;;5055938;28;20437;-69
2023/06/23 08:38:41;;;;;;;8.07;6.57;;;21.50;78.60;;;;;;5056215;28;20897;-70
2023/06/23 08:41:10;;;;;;;8.83;6.87;;;21.70;79.00;;;;;;5056203;28;20461;-70
2023/06/23 08:43:44;;;;;;;8.27;6.53;;;21.90;74.80;;;;;;5056242;28;20477;-70
2023/06/23 08:46:13;;;;;;;11.87;6.60;;;22.10;75.20;;;;;;5056082;28;20426;-69
2023/06/23 08:48:44;;;;;;;8.47;6.90;;;22.20;74.20;;;;;;5056116;28;20426;-69
2023/06/23 08:51:11;;;;;;;8.90;6.40;;;22.30;75.00;;;;;;5055714;28;20471;-69
2023/06/23 08:53:38;;;;;;;8.67;6.93;;;22.50;74.40;;;;;;5055943;28;20484;-69
2023/06/23 08:56:07;;;;;;;8.90;7.43;;;22.60;72.60;;;;;;5055568;28;20427;-69
2023/06/23 08:58:35;;;;;;;11.00;8.20;;;22.70;71.10;;;;;;5055776;28;20444;-70
2023/06/23 09:01:05;;;;;;;11.07;9.00;;;22.70;70.80;;;;;;5055572;28;20438;-69
2023/06/23 09:03:32;;;;;;;11.40;8.20;;;22.90;71.40;;;;;;5055701;28;20418;-70
2023/06/23 09:06:00;;;;;;;10.07;8.47;;;23.10;71.30;;;;;;5054774;28;20476;-69
2023/06/23 09:08:31;;;;;;;14.30;10.63;;;23.20;69.40;;;;;;5055219;28;20435;-69
2023/06/23 09:10:58;;;;;;;14.03;11.10;;;23.30;67.00;;;;;;5055502;28;20823;-69
2023/06/23 09:13:30;;;;;;;10.67;8.27;;;23.40;66.60;;;;;;5055498;28;20833;-69
2023/06/23 09:15:57;;;;;;;9.70;7.80;;;23.50;66.40;;;;;;5055108;28;20886;-69
2023/06/23 09:18:26;;;;;;;12.00;6.97;;;23.70;67.50;;;;;;5055423;28;20831;-69
2023/06/23 09:20:53;;;;;;;9.97;8.10;;;23.90;67.90;;;;;;5054995;28;20426;-70
2023/06/23 09:23:21;;;;;;;9.97;7.10;;;24.20;66.20;;;;;;5055086;28;20434;-70
2023/06/23 09:25:50;;;;;;;8.30;6.90;;;24.30;65.10;;;;;;5054890;28;20817;-69
2023/06/23 09:28:24;;;;;;;8.03;6.73;;;24.50;63.30;;;;;;5055305;28;20467;-69
2023/06/23 09:30:52;;;;;;;8.97;6.33;;;24.60;61.10;;;;;;5054863;28;20897;-70
2023/06/23 09:33:20;;;;;;;12.97;7.90;;;24.60;62.40;;;;;;5055242;28;20427;-70
2023/06/23 09:35:50;;;;;;;10.30;6.80;;;24.70;60.00;;;;;;5054775;28;20439;-70
2023/06/23 09:38:24;;;;;;;8.20;7.00;;;24.70;60.50;;;;;;5055031;28;20424;-69
2023/06/23 09:41:04;;;;;;;11.13;8.20;;;24.90;60.30;;;;;;5054853;28;20436;-69
2023/06/23 09:43:42;;;;;;;8.37;7.23;;;25.10;60.00;;;;;;5055185;28;20808;-69
2023/06/23 09:46:09;;;;;;;9.73;7.57;;;25.20;58.50;;;;;;5054857;28;20423;-70
2023/06/23 09:48:37;;;;;;;13.70;10.00;;;25.30;59.10;;;;;;5054624;28;20914;-69
2023/06/23 09:51:09;;;;;;;8.30;6.73;;;25.50;60.80;;;;;;5054517;28;20467;-69
2023/06/23 09:53:40;;;;;;;9.63;6.50;;;25.70;59.70;;;;;;5054596;28;20427;-69
2023/06/23 09:56:14;;;;;;;9.73;6.00;;;25.90;57.20;;;;;;5054534;28;20432;-69
2023/06/23 09:58:42;;;;;;;9.37;7.27;;;26.10;57.30;;;;;;5054456;28;20464;-69
2023/06/23 10:01:12;;;;;;;9.77;7.97;;;26.30;55.40;;;;;;5054675;28;20439;-69
2023/06/23 10:03:46;;;;;;;9.53;8.27;;;26.40;54.80;;;;;;5054405;28;20965;-69
2023/06/23 10:06:39;;;;;;;10.07;8.50;;;26.40;55.30;;;;;;5054350;28;20495;-69
2023/06/23 10:09:08;;;;;;;7.50;6.27;;;26.60;53.80;;;;;;5054266;28;20429;-69
2023/06/23 10:11:39;;;;;;;8.43;7.60;;;26.70;53.30;;;;;;5054318;28;20425;-69
2023/06/23 10:14:10;;;;;;;9.60;7.27;;;26.70;53.30;;;;;;5054568;28;20499;-69
2023/06/23 10:16:41;;;;;;;8.20;7.10;;;26.80;52.40;;;;;;5054125;28;20422;-69
2023/06/23 10:19:15;;;;;;;8.37;6.87;;;26.60;51.40;;;;;;5054464;28;20464;-69
2023/06/23 10:21:46;;;;;;;9.40;7.00;;;26.50;52.30;;;;;;5054520;28;20445;-69
2023/06/23 10:24:22;;;;;;;9.40;7.57;;;26.20;51.30;;;;;;5053969;28;20505;-69
2023/06/23 10:26:51;;;;;;;12.73;7.80;;;25.90;51.70;;;;;;5054019;28;20452;-69
2023/06/23 10:29:20;;;;;;;10.30;6.90;;;25.70;51.90;;;;;;5054225;28;20445;-69
2023/06/23 10:34:41;;;;;;;11.63;8.80;;;25.20;53.80;;;;;;5054131;28;20428;-69
2023/06/23 10:37:12;;;;;;;12.23;7.40;;;25.20;54.40;;;;;;5054017;28;20424;-69
2023/06/23 10:39:40;;;;;;;8.40;7.03;;;25.10;54.70;;;;;;5054157;28;20444;-69
2023/06/23 10:42:11;;;;;;;10.03;6.80;;;25.20;54.80;;;;;;5053616;28;20471;-69
2023/06/23 10:44:39;;;;;;;10.50;8.30;;;25.30;55.40;;;;;;5053822;28;20471;-69
2023/06/23 10:47:07;;;;;;;10.17;7.43;;;25.40;55.40;;;;;;5053811;28;20436;-69
2023/06/23 10:49:35;;;;;;;13.70;8.30;;;25.40;55.00;;;;;;5053920;28;20476;-69
2023/06/23 10:52:03;;;;;;;8.50;7.60;;;25.40;53.30;;;;;;5053900;28;20464;-70
2023/06/23 10:54:31;;;;;;;7.63;6.37;;;25.30;53.30;;;;;;5053822;28;20431;-70
2023/06/23 10:56:58;;;;;;;9.60;6.23;;;25.20;54.40;;;;;;5053942;28;20432;-69
2023/06/23 10:59:30;;;;;;;7.63;6.40;;;25.20;55.40;;;;;;5053754;28;20483;-69
2023/06/23 11:02:25;;;;;;;9.80;6.27;;;25.20;53.20;;;;;;5053726;28;20449;-69
2023/06/23 11:04:57;;;;;;;9.60;7.40;;;25.30;54.60;;;;;;5040750;28;20948;-69
2023/06/23 11:07:25;;;;;;;10.83;6.80;;;25.40;53.40;;;;;;5053768;28;20619;-69
2023/06/23 11:10:12;;;;;;;7.30;6.00;;;25.60;53.50;;;;;;5053722;28;20468;-69
2023/06/23 11:12:44;;;;;;;8.73;7.53;;;25.70;53.00;;;;;;5053354;28;20453;-69
2023/06/23 11:15:15;;;;;;;9.23;7.73;;;25.80;52.00;;;;;;5053272;28;20472;-69
2023/06/23 11:17:45;;;;;;;8.57;7.50;;;25.90;52.10;;;;;;5053653;28;20503;-69
2023/06/23 11:20:14;;;;;;;8.50;6.80;;;25.90;50.90;;;;;;5053956;28;20418;-69
2023/06/23 11:22:53;;;;;;;8.77;7.87;;;26.00;51.00;;;;;;5053143;28;20437;-69
2023/06/23 11:25:27;;;;;;;8.43;7.20;;;26.10;51.10;;;;;;5053473;28;20461;-69
2023/06/23 11:28:39;;;;;;;9.60;7.17;;;26.10;51.80;;;;;;5053558;28;20420;-69
2023/06/23 11:31:11;;;;;;;10.37;7.33;;;26.10;49.70;;;;;;5032885;28;20484;-69
2023/06/23 11:33:41;;;;;;;8.60;6.37;;;25.90;47.90;;;;;;5055343;28;20500;-69
2023/06/23 11:36:10;;;;;;;7.40;6.53;;;25.70;48.80;;;;;;5057204;28;20862;-69
2023/06/23 11:38:39;;;;;;;12.50;7.37;;;25.60;48.80;;;;;;5057623;28;20429;-69
2023/06/23 11:41:08;;;;;;;10.33;6.20;;;25.40;49.80;;;;;;5057105;28;20479;-69
2023/06/23 11:43:38;;;;;;;7.50;6.23;;;25.30;50.40;;;;;;5056829;28;20452;-70
2023/06/23 11:46:08;;;;;;;8.93;7.20;;;25.30;50.90;;;;;;5057143;28;20472;-69
2023/06/23 11:48:37;;;;;;;8.73;6.53;;;25.30;50.40;;;;;;5057205;28;20425;-72
2023/06/23 11:51:06;;;;;;;8.67;7.00;;;25.30;50.10;;;;;;5057229;28;20432;-69
2023/06/23 11:53:33;;;;;;;8.30;6.67;;;25.40;49.40;;;;;;5057199;28;20439;-69
2023/06/23 11:56:01;;;;;;;9.10;8.00;;;25.40;49.40;;;;;;5057118;28;20494;-69
2023/06/23 11:58:32;;;;;;;8.10;6.67;;;25.40;49.50;;;;;;5057043;28;20446;-70
2023/06/23 12:00:59;;;;;;;13.73;6.63;;;25.50;48.20;;;;;;5056880;28;20494;-69
2023/06/23 12:03:28;;;;;;;8.93;5.93;;;25.40;47.50;;;;;;5056600;28;20901;-69
2023/06/23 12:05:55;;;;;;;7.90;6.20;;;25.40;48.00;;;;;;5056516;28;20516;-70
2023/06/23 12:08:25;;;;;;;8.67;6.10;;;25.30;47.80;;;;;;5056941;28;20538;-69
2023/06/23 12:10:52;;;;;;;6.50;5.60;;;25.20;47.90;;;;;;5056761;28;20502;-70
2023/06/23 12:13:20;;;;;;;8.00;5.87;;;25.10;48.40;;;;;;5056776;28;20431;-69
2023/06/23 12:15:48;;;;;;;9.27;7.17;;;25.10;48.90;;;;;;5056279;28;20443;-69
2023/06/23 12:18:22;;;;;;;8.20;5.80;;;25.00;48.60;;;;;;5056760;28;20465;-69
2023/06/23 12:20:49;;;;;;;6.80;5.03;;;25.00;48.80;;;;;;5056309;28;20922;-69
2023/06/23 12:23:15;;;;;;;9.20;5.27;;;25.10;48.20;;;;;;5056499;28;20506;-69
2023/06/23 12:25:43;;;;;;;5.70;4.50;;;25.20;46.80;;;;;;5056540;28;20807;-69
2023/06/23 12:28:14;;;;;;;6.97;5.23;;;25.40;47.50;;;;;;5056192;28;20912;-69
2023/06/23 12:30:43;;;;;;;6.40;5.80;;;25.60;46.90;;;;;;5056079;28;20425;-70
2023/06/23 12:33:16;;;;;;;7.27;5.50;;;25.80;46.40;;;;;;5056311;28;20438;-69
2023/06/23 12:35:56;;;;;;;6.13;4.50;;;25.90;46.40;;;;;;5056343;28;20433;-69
2023/06/23 12:38:23;;;;;;;6.33;4.60;;;26.10;46.40;;;;;;5056561;28;20452;-69
2023/06/23 12:40:50;;;;;;;5.50;4.47;;;26.30;46.30;;;;;;5054709;28;20484;-69
2023/06/23 12:43:18;;;;;;;10.33;5.80;;;26.40;45.00;;;;;;5056246;28;20468;-69
2023/06/23 12:45:48;;;;;;;11.70;5.30;;;26.50;44.70;;;;;;5056073;28;20484;-69
2023/06/23 12:48:20;;;;;;;8.03;5.10;;;26.50;45.00;;;;;;5056155;28;20483;-69
2023/06/23 12:50:47;;;;;;;6.00;4.97;;;26.50;44.60;;;;;;5056197;28;20501;-69
2023/06/23 12:53:14;;;;;;;7.63;6.00;;;26.40;44.90;;;;;;5056017;28;20441;-69
2023/06/23 12:55:42;;;;;;;7.83;6.00;;;26.20;45.00;;;;;;5055988;28;20491;-69
2023/06/23 12:58:09;;;;;;;6.93;5.27;;;26.10;45.60;;;;;;5055894;28;20437;-69
2023/06/23 13:00:36;;;;;;;6.87;5.53;;;25.90;46.40;;;;;;5056084;28;20803;-69
2023/06/23 13:03:04;;;;;;;9.33;6.60;;;25.70;47.00;;;;;;5055532;28;20909;-70